Time,TemperatureF,DewpointF,PressureIn,WindDirection,WindDirectionDegrees,WindSpeedMPH,WindSpeedGustMPH,Humidity,HourlyPrecipIn,Conditions,Clouds,dailyrainin,SoftwareType,DateUTC
2013-01-24 00:03:00,12.2,5.8,30.42,NNE,31,9.0,10.4,75,0.00,CLR,,0.00,WeatherDisplay:10.37,2013-01-24 06:03:00,
2013-01-24 00:08:00,12.1,5.7,30.43,NNE,22,11.7,11.7,75,0.00,CLR,,0.00,WeatherDisplay:10.37,2013-01-24 06:08:00,
2013-01-24 00:13:00,12.0,5.9,30.43,NE,38,7.6,10.5,76,0.00,CLR,,0.00,WeatherDisplay:10.37,2013-01-24 06:13:00,
2013-01-24 00:18:00,11.9,5.8,30.43,NE,35,11.9,12.7,76,0.00,CLR,,0.00,WeatherDisplay:10.37,2013-01-24 06:18:00,
2013-01-24 00:23:00,11.8,5.7,30.42,NE,52,11.4,11.4,76,0.00,CLR,,0.00,WeatherDisplay:10.37,2013-01-24 06:23:00,
2013-01-24 00:28:00,11.7,5.9,30.42,NNE,30,12.5,12.7,77,0.00,CLR,,0.00,WeatherDisplay:10.37,2013-01-24 06:28:00,
2013-01-24 00:33:00,11.6,6.1,30.42,NNE,30,13.0,15.0,78,0.00,CLR,,0.00,WeatherDisplay:10.37,2013-01-24 06:33:00,
2013-01-24 00:38:00,11.5,6.0,30.42,NE,49,12.9,12.9,78,0.00,CLR,,0.00,WeatherDisplay:10.37,2013-01-24 06:38:00,
2013-01-24 00:43:00,11.4,5.9,30.43,NNE,30,11.2,11.5,78,0.00,CLR,,0.00,WeatherDisplay:10.37,2013-01-24 06:43:00,
2013-01-24 00:48:00,11.3,5.8,30.43,NE,45,11.9,16.1,78,0.00,CLR,,0.00,WeatherDisplay:10.37,2013-01-24 06:48:00,
2013-01-24 00:53:00,11.2,5.7,30.42,NE,43,10.0,12.7,78,0.00,CLR,,0.00,WeatherDisplay:10.37,2013-01-24 06:53:00,
2013-01-24 00:58:00,11.0,5.8,30.42,NE,40,9.8,10.4,79,0.00,CLR,,0.00,WeatherDisplay:10.37,2013-01-24 06:58:00,
2013-01-24 01:03:00,10.9,5.7,30.42,NE,43,9.8,11.5,79,0.00,CLR,,0.00,WeatherDisplay:10.37,2013-01-24 07:03:00,
2013-01-24 01:08:00,10.8,5.6,30.41,NE,49,12.8,12.8,79,0.00,CLR,,0.00,WeatherDisplay:10.37,2013-01-24 07:08:00,
2013-01-24 01:13:00,10.7,5.5,30.42,NE,42,11.1,11.5,79,0.00,CLR,,0.00,WeatherDisplay:10.37,2013-01-24 07:13:00,
2013-01-24 01:19:00,10.6,5.6,30.42,NE,39,11.2,11.2,80,0.00,CLR,,0.00,WeatherDisplay:10.37,2013-01-24 07:19:00,
2013-01-24 01:24:00,10.5,5.3,30.41,NE,44,16.7,16.7,79,0.00,CLR,,0.00,WeatherDisplay:10.37,2013-01-24 07:24:00,
2013-01-24 01:29:00,10.4,5.5,30.41,NNE,23,13.1,13.2,80,0.00,CLR,,0.00,WeatherDisplay:10.37,2013-01-24 07:29:00,
2013-01-24 01:34:00,10.3,5.4,30.42,NE,42,8.4,10.4,80,0.00,CLR,,0.00,WeatherDisplay:10.37,2013-01-24 07:34:00,
2013-01-24 01:39:00,10.2,5.3,30.43,NE,46,7.1,10.4,80,0.00,CLR,,0.00,WeatherDisplay:10.37,2013-01-24 07:39:00,
2013-01-24 01:44:00,10.1,5.2,30.43,NE,41,10.6,10.6,80,0.00,CLR,,0.00,WeatherDisplay:10.37,2013-01-24 07:44:00,
2013-01-24 01:49:00,10.1,5.2,30.43,NE,35,9.5,11.5,80,0.00,CLR,,0.00,WeatherDisplay:10.37,2013-01-24 07:49:00,
2013-01-24 01:54:00,10.0,5.3,30.42,NE,44,7.2,7.9,81,0.00,CLR,,0.00,WeatherDisplay:10.37,2013-01-24 07:54:00,
2013-01-24 01:59:00,9.9,5.2,30.42,NE,43,9.7,10.4,81,0.00,CLR,,0.00,WeatherDisplay:10.37,2013-01-24 07:59:00,
2013-01-24 02:04:00,9.8,5.1,30.42,NE,42,4.9,7.9,81,0.00,CLR,,0.00,WeatherDisplay:10.37,2013-01-24 08:04:00,
2013-01-24 02:09:00,9.7,5.3,30.42,NE,42,7.4,9.2,82,0.00,CLR,,0.00,WeatherDisplay:10.37,2013-01-24 08:09:00,
2013-01-24 02:14:00,9.6,5.2,30.42,NE,44,7.8,9.2,82,0.00,CLR,,0.00,WeatherDisplay:10.37,2013-01-24 08:14:00,
2013-01-24 02:19:00,9.5,5.1,30.43,NE,47,8.7,9.2,82,0.00,CLR,,0.00,WeatherDisplay:10.37,2013-01-24 08:19:00,
2013-01-24 02:24:00,9.5,5.1,30.42,NE,42,6.3,8.1,82,0.00,CLR,,0.00,WeatherDisplay:10.37,2013-01-24 08:24:00,
2013-01-24 02:29:00,9.4,5.3,30.42,NE,48,7.7,8.1,83,0.00,CLR,,0.00,WeatherDisplay:10.37,2013-01-24 08:29:00,
2013-01-24 02:34:00,9.3,5.2,30.42,NE,51,7.7,10.4,83,0.00,CLR,,0.00,WeatherDisplay:10.37,2013-01-24 08:34:00,
2013-01-24 02:39:00,9.3,5.2,30.42,NE,49,9.4,9.4,83,0.00,CLR,,0.00,WeatherDisplay:10.37,2013-01-24 08:39:00,
2013-01-24 02:44:00,9.2,5.1,30.42,NE,50,10.2,10.4,83,0.00,CLR,,0.00,WeatherDisplay:10.37,2013-01-24 08:44:00,
2013-01-24 02:49:00,9.2,5.1,30.43,NE,40,9.7,11.5,83,0.00,CLR,,0.00,WeatherDisplay:10.37,2013-01-24 08:49:00,
2013-01-24 02:54:00,9.2,5.3,30.43,NE,46,8.3,10.4,84,0.00,CLR,,0.00,WeatherDisplay:10.37,2013-01-24 08:54:00,
2013-01-24 02:59:00,9.1,5.2,30.43,NE,46,11.8,11.9,84,0.00,CLR,,0.00,WeatherDisplay:10.37,2013-01-24 08:59:00,
2013-01-24 03:04:00,9.0,5.1,30.42,NE,41,9.7,11.5,84,0.00,CLR,,0.00,WeatherDisplay:10.37,2013-01-24 09:04:00,
2013-01-24 03:09:00,9.0,5.1,30.42,NE,45,9.8,9.8,84,0.00,CLR,,0.00,WeatherDisplay:10.37,2013-01-24 09:09:00,
2013-01-24 03:14:00,9.0,5.1,30.41,NE,46,6.4,6.9,84,0.00,CLR,,0.00,WeatherDisplay:10.37,2013-01-24 09:14:00,
2013-01-24 03:19:00,8.9,5.1,30.41,NE,47,6.2,9.2,84,0.00,CLR,,0.00,WeatherDisplay:10.37,2013-01-24 09:19:00,
2013-01-24 03:24:00,8.9,5.1,30.40,ENE,65,7.2,9.2,84,0.00,CLR,,0.00,WeatherDisplay:10.37,2013-01-24 09:24:00,
2013-01-24 03:29:00,8.9,5.1,30.39,ENE,59,8.9,9.2,84,0.00,CLR,,0.00,WeatherDisplay:10.37,2013-01-24 09:29:00,
2013-01-24 03:34:00,8.9,5.1,30.40,NE,54,9.1,10.4,84,0.00,CLR,,0.00,WeatherDisplay:10.37,2013-01-24 09:34:00,
2013-01-24 03:39:00,8.8,5.0,30.40,NE,49,11.9,15.0,84,0.00,CLR,,0.00,WeatherDisplay:10.37,2013-01-24 09:39:00,
2013-01-24 03:44:00,8.8,5.0,30.40,NE,51,14.0,16.1,84,0.00,CLR,,0.00,WeatherDisplay:10.37,2013-01-24 09:44:00,
2013-01-24 03:49:00,8.7,4.9,30.41,NE,53,13.4,13.4,84,0.00,CLR,,0.00,WeatherDisplay:10.37,2013-01-24 09:49:00,
2013-01-24 03:54:00,8.7,4.9,30.40,NE,46,9.4,9.4,84,0.00,SCT,,0.00,WeatherDisplay:10.37,2013-01-24 09:54:00,
2013-01-24 03:59:00,8.6,4.8,30.38,NE,54,8.8,15.0,84,0.00,SCT,,0.00,WeatherDisplay:10.37,2013-01-24 09:59:00,
2013-01-24 04:04:00,8.5,4.7,30.38,ENE,76,10.9,13.2,84,0.00,FEW,,0.00,WeatherDisplay:10.37,2013-01-24 10:04:00,
2013-01-24 04:09:00,8.4,4.3,30.37,ENE,71,9.8,15.0,83,0.00,FEW,,0.00,WeatherDisplay:10.37,2013-01-24 10:09:00,
2013-01-24 04:14:00,8.3,3.9,30.38,ENE,65,11.2,15.0,82,0.00,FEW,,0.00,WeatherDisplay:10.37,2013-01-24 10:14:00,
2013-01-24 04:19:00,8.1,3.7,30.39,NE,51,6.6,10.4,82,0.00,FEW,,0.00,WeatherDisplay:10.37,2013-01-24 10:19:00,
2013-01-24 04:24:00,8.1,3.5,30.40,NE,48,5.6,8.1,81,0.00,BKN,,0.00,WeatherDisplay:10.37,2013-01-24 10:24:00,
2013-01-24 04:29:00,8.0,3.6,30.40,NE,53,5.8,6.9,82,0.00,BKN,,0.00,WeatherDisplay:10.37,2013-01-24 10:29:00,
2013-01-24 04:34:00,8.0,3.4,30.40,ENE,72,9.8,10.4,81,0.00,BKN,,0.00,WeatherDisplay:10.37,2013-01-24 10:34:00,
2013-01-24 04:39:00,7.9,3.3,30.39,East,80,10.7,12.7,81,0.00,BKN,,0.00,WeatherDisplay:10.37,2013-01-24 10:39:00,
2013-01-24 04:44:00,7.8,2.9,30.39,ENE,68,8.4,10.4,80,0.00,SCT,,0.00,WeatherDisplay:10.37,2013-01-24 10:44:00,
2013-01-24 04:49:00,7.8,3.2,30.39,ENE,71,7.1,11.5,81,0.00,SCT,,0.00,WeatherDisplay:10.37,2013-01-24 10:49:00,
2013-01-24 04:54:00,7.7,3.1,30.38,ENE,72,5.8,6.9,81,0.00,SCT,,0.00,WeatherDisplay:10.37,2013-01-24 10:54:00,
2013-01-24 04:59:00,7.7,3.1,30.39,ENE,74,9.1,12.7,81,0.00,SCT,,0.00,WeatherDisplay:10.37,2013-01-24 10:59:00,
2013-01-24 05:04:00,7.6,3.0,30.39,ENE,71,6.1,9.2,81,0.00,CLR,,0.00,WeatherDisplay:10.37,2013-01-24 11:04:00,
2013-01-24 05:09:00,7.5,2.9,30.39,ENE,67,5.6,6.9,81,0.00,CLR,,0.00,WeatherDisplay:10.37,2013-01-24 11:09:00,
2013-01-24 05:14:00,7.4,3.1,30.39,ENE,65,5.1,6.9,82,0.00,CLR,,0.00,WeatherDisplay:10.37,2013-01-24 11:14:00,
2013-01-24 05:19:00,7.3,3.0,30.39,ENE,64,5.9,5.9,82,0.00,CLR,,0.00,WeatherDisplay:10.37,2013-01-24 11:19:00,
2013-01-24 05:24:00,7.2,2.9,30.39,ENE,58,6.4,6.4,82,0.00,CLR,,0.00,WeatherDisplay:10.37,2013-01-24 11:24:00,
2013-01-24 05:29:00,7.2,2.9,30.40,NE,56,7.2,9.2,82,0.00,CLR,,0.00,WeatherDisplay:10.37,2013-01-24 11:29:00,
2013-01-24 05:34:00,7.1,2.8,30.40,ENE,58,5.8,11.5,82,0.00,CLR,,0.00,WeatherDisplay:10.37,2013-01-24 11:34:00,
2013-01-24 05:39:00,7.1,2.8,30.40,ENE,57,11.4,11.4,82,0.00,CLR,,0.00,WeatherDisplay:10.37,2013-01-24 11:39:00,
2013-01-24 05:44:00,7.0,2.7,30.40,ENE,61,9.6,10.4,82,0.00,CLR,,0.00,WeatherDisplay:10.37,2013-01-24 11:44:00,
2013-01-24 05:49:00,7.0,2.9,30.40,NE,44,6.2,6.9,83,0.00,CLR,,0.00,WeatherDisplay:10.37,2013-01-24 11:49:00,
2013-01-24 05:54:00,7.0,2.9,30.40,ENE,57,9.7,11.5,83,0.00,CLR,,0.00,WeatherDisplay:10.37,2013-01-24 11:54:00,
2013-01-24 05:59:00,6.9,2.8,30.39,NE,42,9.8,10.4,83,0.00,CLR,,0.00,WeatherDisplay:10.37,2013-01-24 11:59:00,
2013-01-24 06:04:00,6.8,2.7,30.39,East,85,9.3,11.5,83,0.00,CLR,,0.00,WeatherDisplay:10.37,2013-01-24 12:04:00,
2013-01-24 06:09:00,6.7,2.6,30.38,NE,53,9.5,10.4,83,0.00,CLR,,0.00,WeatherDisplay:10.37,2013-01-24 12:09:00,
2013-01-24 06:14:00,6.6,2.8,30.38,NE,55,8.9,10.4,84,0.00,CLR,,0.00,WeatherDisplay:10.37,2013-01-24 12:14:00,
2013-01-24 06:19:00,6.6,2.8,30.38,NE,53,6.3,6.3,84,0.00,CLR,,0.00,WeatherDisplay:10.37,2013-01-24 12:19:00,
2013-01-24 06:24:00,6.7,3.1,30.38,ENE,57,5.4,5.8,85,0.00,CLR,,0.00,WeatherDisplay:10.37,2013-01-24 12:24:00,
2013-01-24 06:29:00,6.7,3.1,30.39,East,89,10.2,11.9,85,0.00,CLR,,0.00,WeatherDisplay:10.37,2013-01-24 12:29:00,
2013-01-24 06:34:00,6.5,2.7,30.39,East,87,12.7,12.7,84,0.00,FEW,,0.00,WeatherDisplay:10.37,2013-01-24 12:34:00,
2013-01-24 06:39:00,6.1,1.8,30.39,East,79,11.4,15.0,82,0.00,FEW,,0.00,WeatherDisplay:10.37,2013-01-24 12:39:00,
2013-01-24 06:44:00,5.9,1.3,30.38,ENE,76,4.7,9.2,81,0.00,FEW,,0.00,WeatherDisplay:10.37,2013-01-24 12:44:00,
2013-01-24 06:49:00,5.7,0.9,30.38,ENE,69,10.5,12.7,80,0.00,FEW,,0.00,WeatherDisplay:10.37,2013-01-24 12:49:00,
2013-01-24 06:54:00,5.5,0.7,30.38,ENE,76,7.7,11.5,80,0.00,BKN,,0.00,WeatherDisplay:10.37,2013-01-24 12:54:00,
2013-01-24 06:59:00,5.4,0.8,30.38,East,85,9.1,9.2,81,0.00,BKN,,0.00,WeatherDisplay:10.37,2013-01-24 12:59:00,
2013-01-24 07:04:00,5.3,0.7,30.39,East,90,5.7,8.1,81,0.00,BKN,,0.00,WeatherDisplay:10.37,2013-01-24 13:04:00,
2013-01-24 07:09:00,5.3,0.7,30.39,East,90,10.4,10.4,81,0.00,BKN,,0.00,WeatherDisplay:10.37,2013-01-24 13:09:00,
2013-01-24 07:14:00,5.2,0.9,30.39,East,91,8.5,8.5,82,0.00,SCT,,0.00,WeatherDisplay:10.37,2013-01-24 13:14:00,
2013-01-24 07:19:00,5.2,1.2,30.38,East,90,3.7,4.0,83,0.00,SCT,,0.00,WeatherDisplay:10.37,2013-01-24 13:19:00,
2013-01-24 07:24:00,5.1,0.5,30.39,East,84,7.1,9.2,81,0.00,SCT,,0.00,WeatherDisplay:10.37,2013-01-24 13:24:00,
2013-01-24 07:30:00,4.9,0.1,30.38,East,88,7.8,8.1,80,0.00,SCT,,0.00,WeatherDisplay:10.37,2013-01-24 13:30:00,
2013-01-24 07:35:00,4.8,0.0,30.38,East,83,10.4,10.5,80,0.00,SCT,,0.00,WeatherDisplay:10.37,2013-01-24 13:35:00,
2013-01-24 07:40:00,4.8,0.0,30.37,ESE,102,6.4,10.4,80,0.00,SCT,,0.00,WeatherDisplay:10.37,2013-01-24 13:40:00,
2013-01-24 07:45:00,4.8,0.0,30.37,ESE,102,7.6,9.2,80,0.00,BKN,,0.00,WeatherDisplay:10.37,2013-01-24 13:45:00,
2013-01-24 07:50:00,4.7,-0.1,30.36,East,98,7.4,8.1,80,0.00,BKN,,0.00,WeatherDisplay:10.37,2013-01-24 13:50:00,
2013-01-24 07:55:00,4.6,-0.2,30.36,East,94,10.1,11.5,80,0.00,BKN,,0.00,WeatherDisplay:10.37,2013-01-24 13:55:00,
2013-01-24 08:00:00,4.6,-0.2,30.36,East,92,11.0,12.7,80,0.00,BKN,,0.00,WeatherDisplay:10.37,2013-01-24 14:00:00,
2013-01-24 08:05:00,4.5,-0.3,30.36,East,91,8.4,8.4,80,0.00,SCT,,0.00,WeatherDisplay:10.37,2013-01-24 14:05:00,
2013-01-24 08:10:00,4.5,-0.3,30.37,East,96,6.8,8.1,80,0.00,SCT,,0.00,WeatherDisplay:10.37,2013-01-24 14:10:00,
2013-01-24 08:15:00,4.5,-0.3,30.38,ENE,75,6.7,6.9,80,0.00,SCT,,0.00,WeatherDisplay:10.37,2013-01-24 14:15:00,
2013-01-24 08:20:00,4.7,0.2,30.38,East,92,7.7,10.5,81,0.00,SCT,,0.00,WeatherDisplay:10.37,2013-01-24 14:20:00,
2013-01-24 08:25:00,4.7,0.2,30.37,East,92,9.0,9.2,81,0.00,SCT,,0.00,WeatherDisplay:10.37,2013-01-24 14:25:00,
2013-01-24 08:30:00,4.8,0.2,30.38,East,90,6.0,9.2,81,0.00,SCT,,0.00,WeatherDisplay:10.37,2013-01-24 14:30:00,
2013-01-24 08:35:00,4.9,0.3,30.36,East,101,11.1,12.7,81,0.00,SCT,,0.00,WeatherDisplay:10.37,2013-01-24 14:35:00,
2013-01-24 08:40:00,5.0,0.7,30.36,ESE,110,11.6,12.7,82,0.00,SCT,,0.00,WeatherDisplay:10.37,2013-01-24 14:40:00,
2013-01-24 08:45:00,5.0,0.7,30.36,ESE,113,6.7,9.2,82,0.00,SCT,,0.00,WeatherDisplay:10.37,2013-01-24 14:45:00,
2013-01-24 08:50:00,5.2,0.9,30.37,ESE,111,6.9,9.2,82,0.00,SCT,,0.00,WeatherDisplay:10.37,2013-01-24 14:50:00,
2013-01-24 08:55:00,5.6,1.6,30.37,ESE,110,6.9,6.9,83,0.00,SCT,,0.00,WeatherDisplay:10.37,2013-01-24 14:55:00,
2013-01-24 09:00:00,5.7,1.7,30.37,East,96,4.7,6.9,83,0.00,SCT,,0.00,WeatherDisplay:10.37,2013-01-24 15:00:00,
2013-01-24 09:05:00,5.9,2.1,30.37,East,90,7.3,10.4,84,0.00,CLR,,0.00,WeatherDisplay:10.37,2013-01-24 15:05:00,
2013-01-24 09:10:00,6.1,2.6,30.37,ESE,102,6.9,8.1,85,0.00,CLR,,0.00,WeatherDisplay:10.37,2013-01-24 15:10:00,
2013-01-24 09:15:00,6.3,2.5,30.38,ESE,119,4.2,5.8,84,0.00,CLR,,0.00,WeatherDisplay:10.37,2013-01-24 15:15:00,
2013-01-24 09:20:00,6.5,2.2,30.38,SE,128,7.6,7.6,82,0.00,CLR,,0.00,WeatherDisplay:10.37,2013-01-24 15:20:00,
2013-01-24 09:25:00,6.5,1.9,30.37,SE,128,5.0,6.9,81,0.00,CLR,,0.00,WeatherDisplay:10.37,2013-01-24 15:25:00,
2013-01-24 09:30:00,6.6,1.7,30.37,SE,128,5.7,6.6,80,0.00,CLR,,0.00,WeatherDisplay:10.37,2013-01-24 15:30:00,
2013-01-24 09:35:00,6.6,1.5,30.37,ESE,117,7.4,9.2,79,0.00,CLR,,0.00,WeatherDisplay:10.37,2013-01-24 15:35:00,
2013-01-24 09:40:00,6.7,1.6,30.37,SE,130,8.0,8.1,79,0.00,CLR,,0.00,WeatherDisplay:10.37,2013-01-24 15:40:00,
2013-01-24 09:45:00,6.6,1.2,30.37,SE,132,10.2,10.4,78,0.00,CLR,,0.00,WeatherDisplay:10.37,2013-01-24 15:45:00,
2013-01-24 09:50:00,6.6,1.5,30.36,SE,133,6.9,6.9,79,0.00,CLR,,0.00,WeatherDisplay:10.37,2013-01-24 15:50:00,
2013-01-24 09:55:00,6.9,2.0,30.36,SE,133,6.5,6.6,80,0.00,CLR,,0.00,WeatherDisplay:10.37,2013-01-24 15:55:00,
2013-01-24 10:00:00,7.0,1.6,30.36,SE,139,6.4,6.9,78,0.00,CLR,,0.00,WeatherDisplay:10.37,2013-01-24 16:00:00,
2013-01-24 10:05:00,7.2,1.8,30.37,SE,135,5.1,6.9,78,0.00,CLR,,0.00,WeatherDisplay:10.37,2013-01-24 16:05:00,
2013-01-24 10:10:00,7.4,1.7,30.36,ESE,119,8.1,9.2,77,0.00,CLR,,0.00,WeatherDisplay:10.37,2013-01-24 16:10:00,
2013-01-24 10:15:00,7.3,1.6,30.36,SE,129,6.6,6.9,77,0.00,CLR,,0.00,WeatherDisplay:10.37,2013-01-24 16:15:00,
2013-01-24 10:20:00,7.4,1.4,30.36,SE,137,8.7,8.7,76,0.00,CLR,,0.00,WeatherDisplay:10.37,2013-01-24 16:20:00,
2013-01-24 10:25:00,7.5,1.5,30.35,SE,132,7.6,10.5,76,0.00,CLR,,0.00,WeatherDisplay:10.37,2013-01-24 16:25:00,
2013-01-24 10:30:00,7.7,2.0,30.36,SE,128,7.5,9.2,77,0.00,CLR,,0.00,WeatherDisplay:10.37,2013-01-24 16:30:00,
2013-01-24 10:35:00,7.9,2.2,30.36,SE,126,6.0,8.1,77,0.00,CLR,,0.00,WeatherDisplay:10.37,2013-01-24 16:35:00,
2013-01-24 10:40:00,8.1,1.8,30.36,ESE,117,7.6,10.4,75,0.00,CLR,,0.00,WeatherDisplay:10.37,2013-01-24 16:40:00,
2013-01-24 10:45:00,8.3,2.3,30.36,SE,125,6.1,6.9,76,0.00,CLR,,0.00,WeatherDisplay:10.37,2013-01-24 16:45:00,
2013-01-24 10:50:00,8.7,2.7,30.36,ESE,107,10.8,10.8,76,0.00,CLR,,0.00,WeatherDisplay:10.37,2013-01-24 16:50:00,
2013-01-24 10:55:00,8.9,2.3,30.35,SE,130,7.3,9.2,74,0.00,CLR,,0.00,WeatherDisplay:10.37,2013-01-24 16:55:00,
2013-01-24 11:00:00,9.1,2.5,30.34,SE,125,9.1,9.2,74,0.00,CLR,,0.00,WeatherDisplay:10.37,2013-01-24 17:00:00,
2013-01-24 11:05:00,9.6,3.3,30.34,ESE,113,9.3,9.3,75,0.00,CLR,,0.00,WeatherDisplay:10.37,2013-01-24 17:05:00,
2013-01-24 11:10:00,9.9,3.0,30.33,SE,136,9.3,9.3,73,0.00,CLR,,0.00,WeatherDisplay:10.37,2013-01-24 17:10:00,
2013-01-24 11:15:00,9.8,2.9,30.33,SE,128,8.8,10.5,73,0.00,CLR,,0.00,WeatherDisplay:10.37,2013-01-24 17:15:00,
2013-01-24 11:20:00,10.1,2.9,30.33,SE,129,10.1,11.5,72,0.00,CLR,,0.00,WeatherDisplay:10.37,2013-01-24 17:20:00,
2013-01-24 11:25:00,10.5,3.3,30.32,SE,140,7.1,9.2,72,0.00,CLR,,0.00,WeatherDisplay:10.37,2013-01-24 17:25:00,
2013-01-24 11:30:00,10.7,3.1,30.32,SE,124,8.5,10.4,71,0.00,CLR,,0.00,WeatherDisplay:10.37,2013-01-24 17:30:00,
2013-01-24 11:35:00,10.8,2.9,30.32,ESE,119,10.4,10.5,70,0.00,CLR,,0.00,WeatherDisplay:10.37,2013-01-24 17:35:00,
2013-01-24 11:40:00,11.0,3.4,30.32,ESE,115,8.0,10.4,71,0.00,CLR,,0.00,WeatherDisplay:10.37,2013-01-24 17:40:00,
2013-01-24 11:45:00,11.5,3.6,30.32,ESE,105,10.1,11.5,70,0.00,CLR,,0.00,WeatherDisplay:10.37,2013-01-24 17:45:00,
2013-01-24 11:50:00,12.4,4.5,30.31,ESE,115,5.5,9.2,70,0.00,CLR,,0.00,WeatherDisplay:10.37,2013-01-24 17:50:00,
2013-01-24 11:55:00,12.8,4.2,30.31,SE,144,8.7,9.2,68,0.00,CLR,,0.00,WeatherDisplay:10.37,2013-01-24 17:55:00,
2013-01-24 12:00:00,12.8,3.6,30.31,ESE,110,7.8,7.8,66,0.00,CLR,,0.00,WeatherDisplay:10.37,2013-01-24 18:00:00,
2013-01-24 12:06:00,12.9,3.3,30.30,SE,146,11.8,11.8,65,0.00,CLR,,0.00,WeatherDisplay:10.37,2013-01-24 18:06:00,
2013-01-24 12:11:00,12.9,3.0,30.29,SSE,150,12.8,12.8,64,0.00,CLR,,0.00,WeatherDisplay:10.37,2013-01-24 18:11:00,
2013-01-24 12:16:00,12.9,3.0,30.29,SE,141,10.5,11.5,64,0.00,CLR,,0.00,WeatherDisplay:10.37,2013-01-24 18:16:00,
2013-01-24 12:21:00,13.0,3.4,30.29,SSE,147,10.2,11.5,65,0.00,CLR,,0.00,WeatherDisplay:10.37,2013-01-24 18:21:00,
2013-01-24 12:26:00,13.0,3.1,30.29,SE,146,7.0,10.4,64,0.00,CLR,,0.00,WeatherDisplay:10.37,2013-01-24 18:26:00,
2013-01-24 12:31:00,13.1,2.9,30.28,SSE,150,10.5,10.5,63,0.00,CLR,,0.00,WeatherDisplay:10.37,2013-01-24 18:31:00,
2013-01-24 12:36:00,13.0,3.1,30.28,SE,144,6.6,9.2,64,0.00,CLR,,0.00,WeatherDisplay:10.37,2013-01-24 18:36:00,
2013-01-24 12:41:00,13.1,2.9,30.27,SE,144,10.7,12.7,63,0.00,CLR,,0.00,WeatherDisplay:10.37,2013-01-24 18:41:00,
2013-01-24 12:46:00,13.0,2.8,30.27,South,169,9.5,9.5,63,0.00,CLR,,0.00,WeatherDisplay:10.37,2013-01-24 18:46:00,
2013-01-24 12:51:00,13.4,3.8,30.27,South,178,7.0,7.0,65,0.00,CLR,,0.00,WeatherDisplay:10.37,2013-01-24 18:51:00,
2013-01-24 12:56:00,13.7,3.8,30.26,SSE,164,5.8,9.2,64,0.00,CLR,,0.00,WeatherDisplay:10.37,2013-01-24 18:56:00,
2013-01-24 13:01:00,14.0,3.7,30.25,SSE,168,9.5,11.5,63,0.00,CLR,,0.00,WeatherDisplay:10.37,2013-01-24 19:01:00,
2013-01-24 13:06:00,14.3,4.3,30.24,SSE,161,5.6,6.9,64,0.00,OVC,,0.00,WeatherDisplay:10.37,2013-01-24 19:06:00,
2013-01-24 13:11:00,14.6,3.9,30.23,South,174,8.0,11.5,62,0.00,OVC,,0.00,WeatherDisplay:10.37,2013-01-24 19:11:00,
2013-01-24 13:16:00,14.8,4.1,30.23,SSE,159,8.3,8.3,62,0.00,OVC,,0.00,WeatherDisplay:10.37,2013-01-24 19:16:00,
2013-01-24 13:21:00,15.3,4.6,30.23,SSE,158,7.5,8.1,62,0.00,OVC,,0.00,WeatherDisplay:10.37,2013-01-24 19:21:00,
2013-01-24 13:26:00,15.4,4.0,30.23,SSE,151,10.5,10.5,60,0.00,OVC,,0.00,WeatherDisplay:10.37,2013-01-24 19:26:00,
2013-01-24 13:31:00,15.6,4.2,30.22,SSE,163,9.3,10.4,60,0.00,OVC,,0.00,WeatherDisplay:10.37,2013-01-24 19:31:00,
2013-01-24 13:36:00,15.7,3.9,30.22,SSE,167,10.0,11.5,59,0.00,OVC,,0.00,WeatherDisplay:10.37,2013-01-24 19:36:00,
2013-01-24 13:41:00,15.9,4.4,30.20,SSE,161,9.1,9.2,60,0.00,OVC,,0.00,WeatherDisplay:10.37,2013-01-24 19:41:00,
2013-01-24 13:46:00,16.2,4.4,30.20,SE,146,9.2,9.2,59,0.00,OVC,,0.00,WeatherDisplay:10.37,2013-01-24 19:46:00,
2013-01-24 13:51:00,16.4,4.2,30.19,SSE,162,13.1,16.1,58,0.00,OVC,,0.00,WeatherDisplay:10.37,2013-01-24 19:51:00,
2013-01-24 13:56:00,16.7,4.1,30.20,SSE,162,12.6,15.0,57,0.00,OVC,,0.00,WeatherDisplay:10.37,2013-01-24 19:56:00,
2013-01-24 14:01:00,16.8,4.2,30.19,South,173,9.1,10.4,57,0.00,OVC,,0.00,WeatherDisplay:10.37,2013-01-24 20:01:00,
2013-01-24 14:06:00,17.3,4.7,30.19,SSE,157,8.7,9.2,57,0.00,OVC,,0.00,WeatherDisplay:10.37,2013-01-24 20:06:00,
2013-01-24 14:11:00,17.6,4.2,30.18,SSE,157,4.9,5.8,55,0.00,OVC,,0.00,WeatherDisplay:10.37,2013-01-24 20:11:00,
2013-01-24 14:16:00,17.7,3.8,30.17,SSE,166,9.7,15.0,54,0.00,OVC,,0.00,WeatherDisplay:10.37,2013-01-24 20:16:00,
2013-01-24 14:21:00,17.8,3.9,30.17,SSE,165,9.5,9.5,54,0.00,OVC,,0.00,WeatherDisplay:10.37,2013-01-24 20:21:00,
2013-01-24 14:26:00,18.0,3.7,30.17,SSE,165,6.1,6.9,53,0.00,OVC,,0.00,WeatherDisplay:10.37,2013-01-24 20:26:00,
2013-01-24 14:31:00,18.4,4.1,30.16,SSE,153,9.4,11.5,53,0.00,OVC,,0.00,WeatherDisplay:10.37,2013-01-24 20:31:00,
2013-01-24 14:36:00,18.5,3.8,30.16,SSE,159,8.2,11.5,52,0.00,OVC,,0.00,WeatherDisplay:10.37,2013-01-24 20:36:00,
2013-01-24 14:41:00,18.5,2.9,30.16,SSE,167,12.2,12.7,50,0.00,OVC,,0.00,WeatherDisplay:10.37,2013-01-24 20:41:00,
2013-01-24 14:46:00,18.4,3.3,30.16,SSW,194,5.7,9.2,51,0.00,OVC,,0.00,WeatherDisplay:10.37,2013-01-24 20:46:00,
2013-01-24 14:51:00,18.4,2.8,30.16,South,186,11.0,15.0,50,0.00,OVC,,0.00,WeatherDisplay:10.37,2013-01-24 20:51:00,
2013-01-24 14:56:00,18.4,3.3,30.16,SSW,194,6.1,8.1,51,0.00,OVC,,0.00,WeatherDisplay:10.37,2013-01-24 20:56:00,
2013-01-24 15:01:00,18.6,3.0,30.16,South,175,9.0,10.4,50,0.00,OVC,,0.00,WeatherDisplay:10.37,2013-01-24 21:01:00,
2013-01-24 15:06:00,18.6,3.0,30.16,SSW,192,8.1,9.2,50,0.00,OVC,,0.00,WeatherDisplay:10.37,2013-01-24 21:06:00,
2013-01-24 15:11:00,18.7,3.5,30.15,SSW,198,7.7,10.8,51,0.00,OVC,,0.00,WeatherDisplay:10.37,2013-01-24 21:11:00,
2013-01-24 15:16:00,18.7,3.1,30.15,SSE,166,9.4,11.5,50,0.00,OVC,,0.00,WeatherDisplay:10.37,2013-01-24 21:16:00,
2013-01-24 15:21:00,18.7,3.1,30.15,South,185,7.0,9.2,50,0.00,OVC,,0.00,WeatherDisplay:10.37,2013-01-24 21:21:00,
2013-01-24 15:26:00,18.7,3.5,30.14,South,189,6.7,8.1,51,0.00,OVC,,0.00,WeatherDisplay:10.37,2013-01-24 21:26:00,
2013-01-24 15:31:00,18.9,4.1,30.14,SSE,157,10.5,10.5,52,0.00,OVC,,0.00,WeatherDisplay:10.37,2013-01-24 21:31:00,
2013-01-24 15:36:00,19.1,4.3,30.13,SSE,161,7.3,8.1,52,0.00,OVC,,0.00,WeatherDisplay:10.37,2013-01-24 21:36:00,
2013-01-24 15:41:00,19.0,3.8,30.13,SSE,162,9.8,10.5,51,0.00,OVC,,0.00,WeatherDisplay:10.37,2013-01-24 21:41:00,
2013-01-24 15:46:00,19.0,4.7,30.13,South,191,7.0,9.2,53,0.00,OVC,,0.00,WeatherDisplay:10.37,2013-01-24 21:46:00,
2013-01-24 15:51:00,19.3,4.9,30.13,South,187,5.2,6.9,53,0.00,OVC,,0.00,WeatherDisplay:10.37,2013-01-24 21:51:00,
2013-01-24 15:56:00,19.6,4.8,30.12,SSE,164,8.4,9.2,52,0.00,OVC,,0.00,WeatherDisplay:10.37,2013-01-24 21:56:00,
2013-01-24 16:01:00,19.6,3.9,30.12,SSE,163,8.4,12.7,50,0.00,OVC,,0.00,WeatherDisplay:10.37,2013-01-24 22:01:00,
2013-01-24 16:06:00,19.6,3.9,30.11,SSE,167,7.9,10.4,50,0.00,OVC,,0.00,WeatherDisplay:10.37,2013-01-24 22:06:00,
2013-01-24 16:11:00,19.7,4.0,30.11,South,190,6.7,9.7,50,0.00,OVC,,0.00,WeatherDisplay:10.37,2013-01-24 22:11:00,
2013-01-24 16:16:00,19.6,3.5,30.10,SSE,165,15.2,16.1,49,0.00,OVC,,0.00,WeatherDisplay:10.37,2013-01-24 22:16:00,
2013-01-24 16:21:00,19.5,4.3,30.10,South,178,8.2,9.2,51,0.00,OVC,,0.00,WeatherDisplay:10.37,2013-01-24 22:21:00,
2013-01-24 16:26:00,19.6,3.9,30.09,SSE,159,10.6,15.0,50,0.00,OVC,,0.00,WeatherDisplay:10.37,2013-01-24 22:26:00,
2013-01-24 16:31:00,19.7,4.5,30.09,SSE,151,8.5,8.5,51,0.00,OVC,,0.00,WeatherDisplay:10.37,2013-01-24 22:31:00,
2013-01-24 16:36:00,19.8,4.1,30.09,SSW,194,8.2,18.4,50,0.00,OVC,,0.00,WeatherDisplay:10.37,2013-01-24 22:36:00,
2013-01-24 16:41:00,19.7,4.5,30.10,South,183,3.8,11.5,51,0.00,OVC,,0.00,WeatherDisplay:10.37,2013-01-24 22:41:00,
2013-01-24 16:46:00,19.7,4.0,30.09,South,190,5.1,9.2,50,0.00,OVC,,0.00,WeatherDisplay:10.37,2013-01-24 22:46:00,
2013-01-24 16:51:00,19.6,3.9,30.08,South,184,7.2,11.5,50,0.00,OVC,,0.00,WeatherDisplay:10.37,2013-01-24 22:51:00,
2013-01-24 16:56:00,19.5,3.9,30.09,South,174,6.4,6.9,50,0.00,OVC,,0.00,WeatherDisplay:10.37,2013-01-24 22:56:00,
2013-01-24 17:01:00,19.3,4.1,30.09,SSE,167,5.6,9.2,51,0.00,OVC,,0.00,WeatherDisplay:10.37,2013-01-24 23:01:00,
2013-01-24 17:06:00,19.2,4.4,30.09,SSW,192,8.4,10.4,52,0.00,OVC,,0.00,WeatherDisplay:10.37,2013-01-24 23:06:00,
2013-01-24 17:11:00,19.2,4.4,30.09,SSW,194,8.2,12.7,52,0.00,OVC,,0.00,WeatherDisplay:10.37,2013-01-24 23:11:00,
2013-01-24 17:16:00,19.2,4.8,30.09,South,191,7.6,10.4,53,0.00,OVC,,0.00,WeatherDisplay:10.37,2013-01-24 23:16:00,
2013-01-24 17:21:00,19.1,4.8,30.09,South,180,9.8,10.4,53,0.00,OVC,,0.00,WeatherDisplay:10.37,2013-01-24 23:21:00,
2013-01-24 17:26:00,19.1,5.2,30.09,South,171,7.7,11.9,54,0.00,OVC,,0.00,WeatherDisplay:10.37,2013-01-24 23:26:00,
2013-01-24 17:31:00,19.1,4.8,30.09,South,180,10.6,12.7,53,0.00,OVC,,0.00,WeatherDisplay:10.37,2013-01-24 23:31:00,
2013-01-24 17:37:00,19.1,4.8,30.09,South,189,7.9,9.2,53,0.00,OVC,,0.00,WeatherDisplay:10.37,2013-01-24 23:37:00,
2013-01-24 17:42:00,19.2,5.3,30.09,South,190,4.1,8.1,54,0.00,OVC,,0.00,WeatherDisplay:10.37,2013-01-24 23:42:00,
2013-01-24 17:47:00,19.2,4.8,30.09,South,175,9.1,10.4,53,0.00,OVC,,0.00,WeatherDisplay:10.37,2013-01-24 23:47:00,
2013-01-24 17:52:00,19.2,5.7,30.10,SSW,200,6.8,8.1,55,0.00,OVC,,0.00,WeatherDisplay:10.37,2013-01-24 23:52:00,
2013-01-24 17:57:00,19.4,5.8,30.10,SSW,199,7.8,9.2,55,0.00,OVC,,0.00,WeatherDisplay:10.37,2013-01-24 23:57:00,
2013-01-24 18:02:00,19.5,6.3,30.10,SSW,206,6.2,8.1,56,0.00,OVC,,0.00,WeatherDisplay:10.37,2013-01-25 00:02:00,
2013-01-24 18:07:00,19.5,5.9,30.10,SSW,196,4.4,9.2,55,0.00,OVC,,0.00,WeatherDisplay:10.37,2013-01-25 00:07:00,
2013-01-24 18:12:00,19.4,5.8,30.09,SSW,192,6.4,13.8,55,0.00,OVC,,0.00,WeatherDisplay:10.37,2013-01-25 00:12:00,
2013-01-24 18:17:00,19.4,5.8,30.09,SSW,194,6.4,11.5,55,0.00,OVC,,0.00,WeatherDisplay:10.37,2013-01-25 00:17:00,
2013-01-24 18:22:00,19.5,6.3,30.09,SSW,202,7.0,9.2,56,0.00,OVC,,0.00,WeatherDisplay:10.37,2013-01-25 00:22:00,
2013-01-24 18:27:00,19.5,6.3,30.09,SSW,200,7.4,8.1,56,0.00,OVC,,0.00,WeatherDisplay:10.37,2013-01-25 00:27:00,
2013-01-24 18:32:00,19.5,6.3,30.10,SSW,192,7.4,9.2,56,0.00,OVC,,0.00,WeatherDisplay:10.37,2013-01-25 00:32:00,
2013-01-24 18:37:00,19.4,6.2,30.10,SSW,202,8.0,15.0,56,0.00,OVC,,0.00,WeatherDisplay:10.37,2013-01-25 00:37:00,
2013-01-24 18:42:00,19.4,6.6,30.10,SSW,200,8.6,13.8,57,0.00,OVC,,0.00,WeatherDisplay:10.37,2013-01-25 00:42:00,
2013-01-24 18:47:00,19.4,6.6,30.10,SW,218,7.1,10.4,57,0.00,OVC,,0.00,WeatherDisplay:10.37,2013-01-25 00:47:00,
2013-01-24 18:52:00,19.6,7.2,30.10,SSW,207,6.5,10.4,58,0.00,OVC,,0.00,WeatherDisplay:10.37,2013-01-25 00:52:00,
2013-01-24 18:57:00,19.6,6.8,30.10,SSW,195,4.2,8.1,57,0.00,OVC,,0.00,WeatherDisplay:10.37,2013-01-25 00:57:00,
2013-01-24 19:02:00,19.7,7.3,30.11,SW,218,4.7,8.1,58,0.00,OVC,,0.00,WeatherDisplay:10.37,2013-01-25 01:02:00,
2013-01-24 19:07:00,19.7,6.9,30.10,SSW,193,7.6,9.2,57,0.00,OVC,,0.00,WeatherDisplay:10.37,2013-01-25 01:07:00,
2013-01-24 19:12:00,19.7,7.3,30.10,SSW,200,7.1,9.2,58,0.00,OVC,,0.00,WeatherDisplay:10.37,2013-01-25 01:12:00,
2013-01-24 19:17:00,19.8,7.4,30.10,SSW,200,6.6,8.1,58,0.00,OVC,,0.00,WeatherDisplay:10.37,2013-01-25 01:17:00,
2013-01-24 19:22:00,19.9,7.9,30.10,SSW,200,3.9,5.8,59,0.00,OVC,,0.00,WeatherDisplay:10.37,2013-01-25 01:22:00,
2013-01-24 19:27:00,20.0,7.6,30.10,SSW,196,8.6,11.5,58,0.00,OVC,,0.00,WeatherDisplay:10.37,2013-01-25 01:27:00,
2013-01-24 19:32:00,20.0,8.0,30.10,SSW,209,5.1,8.1,59,0.00,OVC,,0.00,WeatherDisplay:10.37,2013-01-25 01:32:00,
2013-01-24 19:37:00,20.0,8.0,30.10,SSW,212,6.9,10.4,59,0.00,OVC,,0.00,WeatherDisplay:10.37,2013-01-25 01:37:00,
2013-01-24 19:42:00,19.8,7.4,30.09,SSW,198,10.7,16.1,58,0.00,OVC,,0.00,WeatherDisplay:10.37,2013-01-25 01:42:00,
2013-01-24 19:47:00,19.6,7.6,30.09,SW,216,7.3,11.9,59,0.00,OVC,,0.00,WeatherDisplay:10.37,2013-01-25 01:47:00,
2013-01-24 19:52:00,19.5,7.5,30.09,SSW,198,10.9,13.8,59,0.00,OVC,,0.00,WeatherDisplay:10.37,2013-01-25 01:52:00,
2013-01-24 19:57:00,19.4,7.8,30.09,SSW,209,8.7,11.5,60,0.00,OVC,,0.00,WeatherDisplay:10.37,2013-01-25 01:57:00,
2013-01-24 20:02:00,19.3,7.3,30.08,SSW,195,6.2,9.2,59,0.00,SCT,,0.00,WeatherDisplay:10.37,2013-01-25 02:02:00,
2013-01-24 20:07:00,19.3,8.0,30.08,SSW,202,6.6,9.2,61,0.00,SCT,,0.00,WeatherDisplay:10.37,2013-01-25 02:07:00,
2013-01-24 20:12:00,19.2,7.9,30.08,SSW,199,3.2,4.6,61,0.00,SCT,,0.00,WeatherDisplay:10.37,2013-01-25 02:12:00,
2013-01-24 20:17:00,19.1,7.8,30.08,SSW,198,5.3,8.1,61,0.00,SCT,,0.00,WeatherDisplay:10.37,2013-01-25 02:17:00,
2013-01-24 20:22:00,19.0,8.1,30.07,SSW,193,6.6,9.2,62,0.00,SCT,,0.00,WeatherDisplay:10.37,2013-01-25 02:22:00,
2013-01-24 20:27:00,19.0,7.7,30.07,SW,214,9.2,12.7,61,0.00,SCT,,0.00,WeatherDisplay:10.37,2013-01-25 02:27:00,
2013-01-24 20:32:00,19.0,8.1,30.07,SSW,205,3.9,8.1,62,0.00,SCT,,0.00,WeatherDisplay:10.37,2013-01-25 02:32:00,
2013-01-24 20:37:00,19.0,8.1,30.08,SSW,202,3.0,8.1,62,0.00,SCT,,0.00,WeatherDisplay:10.37,2013-01-25 02:37:00,
2013-01-24 20:42:00,18.9,8.4,30.08,SSW,198,5.1,6.9,63,0.00,SCT,,0.00,WeatherDisplay:10.37,2013-01-25 02:42:00,
2013-01-24 20:47:00,19.0,8.1,30.08,SSW,193,1.9,5.8,62,0.00,SCT,,0.00,WeatherDisplay:10.37,2013-01-25 02:47:00,
2013-01-24 20:52:00,18.9,8.4,30.08,SSW,205,4.9,6.9,63,0.00,SCT,,0.00,WeatherDisplay:10.37,2013-01-25 02:52:00,
2013-01-24 20:57:00,18.9,8.4,30.08,SSW,197,5.9,9.2,63,0.00,SCT,,0.00,WeatherDisplay:10.37,2013-01-25 02:57:00,
2013-01-24 21:02:00,18.9,8.7,30.08,SSW,204,4.0,8.1,64,0.00,CLR,,0.00,WeatherDisplay:10.37,2013-01-25 03:02:00,
2013-01-24 21:07:00,18.9,8.7,30.09,SSW,205,3.8,8.1,64,0.00,CLR,,0.00,WeatherDisplay:10.37,2013-01-25 03:07:00,
2013-01-24 21:12:00,18.8,8.6,30.09,SSW,200,3.8,4.6,64,0.00,CLR,,0.00,WeatherDisplay:10.37,2013-01-25 03:12:00,
2013-01-24 21:17:00,18.8,9.0,30.09,SSW,211,5.2,6.9,65,0.00,CLR,,0.00,WeatherDisplay:10.37,2013-01-25 03:17:00,
2013-01-24 21:22:00,18.8,9.0,30.09,SW,222,4.3,5.8,65,0.00,CLR,,0.00,WeatherDisplay:10.37,2013-01-25 03:22:00,
2013-01-24 21:27:00,18.7,8.9,30.09,SW,222,2.7,3.5,65,0.00,CLR,,0.00,WeatherDisplay:10.37,2013-01-25 03:27:00,
2013-01-24 21:32:00,18.6,8.8,30.09,SW,221,2.2,3.2,65,0.00,CLR,,0.00,WeatherDisplay:10.37,2013-01-25 03:32:00,
2013-01-24 21:37:00,18.6,9.1,30.09,SW,222,2.7,3.5,66,0.00,CLR,,0.00,WeatherDisplay:10.37,2013-01-25 03:37:00,
2013-01-24 21:42:00,18.6,9.1,30.09,SW,222,2.3,3.5,66,0.00,CLR,,0.00,WeatherDisplay:10.37,2013-01-25 03:42:00,
2013-01-24 21:47:00,18.6,9.1,30.09,SW,221,0.2,1.1,66,0.00,CLR,,0.00,WeatherDisplay:10.37,2013-01-25 03:47:00,
2013-01-24 21:52:00,18.6,9.1,30.11,SW,222,1.3,2.3,66,0.00,CLR,,0.00,WeatherDisplay:10.37,2013-01-25 03:52:00,
2013-01-24 21:57:00,18.6,9.1,30.11,SW,221,0.0,0.0,66,0.00,CLR,,0.00,WeatherDisplay:10.37,2013-01-25 03:57:00,
2013-01-24 22:02:00,18.5,9.4,30.12,SW,222,0.0,0.0,67,0.00,CLR,,0.00,WeatherDisplay:10.37,2013-01-25 04:02:00,
2013-01-24 22:07:00,18.4,8.9,30.11,SW,221,0.0,0.0,66,0.00,CLR,,0.00,WeatherDisplay:10.37,2013-01-25 04:07:00,
2013-01-24 22:12:00,18.3,9.5,30.11,SW,221,0.0,0.0,68,0.00,CLR,,0.00,WeatherDisplay:10.37,2013-01-25 04:12:00,
2013-01-24 22:17:00,18.4,9.9,30.09,SW,221,2.9,4.6,69,0.00,CLR,,0.00,WeatherDisplay:10.37,2013-01-25 04:17:00,
2013-01-24 22:22:00,18.5,10.0,30.09,SW,221,3.5,4.6,69,0.00,CLR,,0.00,WeatherDisplay:10.37,2013-01-25 04:22:00,
2013-01-24 22:27:00,18.7,10.2,30.09,SW,221,3.6,5.8,69,0.00,CLR,,0.00,WeatherDisplay:10.37,2013-01-25 04:27:00,
2013-01-24 22:32:00,18.9,10.1,30.10,SW,221,3.9,4.6,68,0.00,CLR,,0.00,WeatherDisplay:10.37,2013-01-25 04:32:00,
2013-01-24 22:37:00,19.0,10.2,30.11,SW,222,1.6,3.2,68,0.00,CLR,,0.00,WeatherDisplay:10.37,2013-01-25 04:37:00,
2013-01-24 22:42:00,19.1,10.3,30.10,SW,221,0.3,2.3,68,0.00,CLR,,0.00,WeatherDisplay:10.37,2013-01-25 04:42:00,
2013-01-24 22:47:00,19.1,10.3,30.11,SW,221,5.0,6.9,68,0.00,CLR,,0.00,WeatherDisplay:10.37,2013-01-25 04:47:00,
2013-01-24 22:52:00,19.1,10.6,30.11,SW,222,1.8,3.5,69,0.00,CLR,,0.00,WeatherDisplay:10.37,2013-01-25 04:52:00,
2013-01-24 22:57:00,19.1,10.6,30.11,SW,222,2.5,4.6,69,0.00,CLR,,0.00,WeatherDisplay:10.37,2013-01-25 04:57:00,
2013-01-24 23:01:00,19.2,11.0,30.11,SW,222,3.8,3.8,70,0.00,CLR,,0.00,WeatherDisplay:10.37,2013-01-25 05:01:00,
2013-01-24 23:03:00,19.2,11.0,30.11,SW,222,2.2,3.5,70,0.00,CLR,,0.00,WeatherDisplay:10.37,2013-01-25 05:03:00,
2013-01-24 23:08:00,19.2,10.7,30.11,SW,221,4.6,7.6,69,0.00,CLR,,0.00,WeatherDisplay:10.37,2013-01-25 05:08:00,
2013-01-24 23:13:00,19.2,11.0,30.11,SW,222,3.3,3.5,70,0.00,CLR,,0.00,WeatherDisplay:10.37,2013-01-25 05:13:00,
2013-01-24 23:18:00,19.2,10.7,30.11,SW,222,2.6,4.6,69,0.00,CLR,,0.00,WeatherDisplay:10.37,2013-01-25 05:18:00,
2013-01-24 23:23:00,19.2,10.7,30.10,SW,222,1.9,3.5,69,0.00,CLR,,0.00,WeatherDisplay:10.37,2013-01-25 05:23:00,
2013-01-24 23:28:00,19.2,10.7,30.11,SW,221,2.6,4.6,69,0.00,CLR,,0.00,WeatherDisplay:10.37,2013-01-25 05:28:00,
2013-01-24 23:33:00,19.1,10.9,30.12,SW,221,2.5,3.5,70,0.00,CLR,,0.00,WeatherDisplay:10.37,2013-01-25 05:33:00,
2013-01-24 23:38:00,19.1,10.9,30.12,SW,222,4.1,5.8,70,0.00,CLR,,0.00,WeatherDisplay:10.37,2013-01-25 05:38:00,
2013-01-24 23:43:00,19.1,10.6,30.11,SW,222,2.6,3.5,69,0.00,CLR,,0.00,WeatherDisplay:10.37,2013-01-25 05:43:00,
2013-01-24 23:48:00,19.1,10.6,30.12,SW,221,0.0,1.1,69,0.00,CLR,,0.00,WeatherDisplay:10.37,2013-01-25 05:48:00,
2013-01-24 23:53:00,19.0,10.5,30.13,SW,221,3.5,4.3,69,0.00,CLR,,0.00,WeatherDisplay:10.37,2013-01-25 05:53:00,
2013-01-24 23:58:00,18.9,10.7,30.12,SW,222,1.9,3.5,70,0.00,CLR,,0.00,WeatherDisplay:10.37,2013-01-25 05:58:00,